Time;durP1;ratioP1;P1;durP2;ratioP2;P2;SDS_P1;SDS_P2;PMS_P1;PMS_P2;Temp;Humidity;BMP_temperature;BMP_pressure;BME280_temperature;BME280_humidity;BME280_pressure;Samples;Min_cycle;Max_cycle;Signal;HPM_P1;HPM_P2
2022/06/29 00:00:22;;;;;;;0.10;0.10;;;;;;;19.98;57.08;101703.41;5094398;28;20035;-81
2022/06/29 00:02:48;;;;;;;0.10;0.10;;;;;;;19.97;57.05;101701.66;5075442;28;20491;-78
2022/06/29 00:05:18;;;;;;;0.10;0.10;;;;;;;19.98;56.95;101698.03;5076987;28;20024;-78
2022/06/29 00:07:45;;;;;;;0.00;0.00;;;;;;;19.94;57.16;101697.31;5086692;28;20039;-78
2022/06/29 00:11:03;;;;;;;0.03;0.03;;;;;;;20.03;56.84;101698.69;5085818;28;20037;-78
2022/06/29 00:13:29;;;;;;;0.00;0.00;;;;;;;19.86;57.62;101689.59;5085745;28;20486;-78
2022/06/29 00:15:55;;;;;;;0.00;0.00;;;;;;;19.84;57.65;101683.41;5088572;28;20023;-78
2022/06/29 00:18:21;;;;;;;0.00;0.00;;;;;;;19.80;57.87;101692.53;5088678;28;20106;-78
2022/06/29 00:20:47;;;;;;;0.05;0.05;;;;;;;19.79;57.73;101684.50;5082716;28;20432;-78
2022/06/29 00:23:13;;;;;;;0.00;0.00;;;;;;;19.76;57.88;101687.34;5095933;28;20108;-78
2022/06/29 00:25:39;;;;;;;0.00;0.00;;;;;;;19.73;57.89;101683.84;5093833;28;20115;-78
2022/06/29 00:28:09;;;;;;;0.00;0.00;;;;;;;19.73;57.77;101677.59;5096166;28;20485;-78
2022/06/29 00:30:37;;;;;;;0.00;0.00;;;;;;;19.66;57.64;101674.31;5093482;28;20032;-78
2022/06/29 00:33:03;;;;;;;0.00;0.00;;;;;;;19.65;57.94;101674.38;5082557;28;20039;-78
2022/06/29 00:35:29;;;;;;;0.13;0.13;;;;;;;19.61;57.38;101673.63;5081313;28;20028;-78
2022/06/29 00:37:55;;;;;;;0.00;0.00;;;;;;;19.59;57.64;101678.22;5091019;28;20031;-78
2022/06/29 00:40:22;;;;;;;0.00;0.00;;;;;;;19.56;57.73;101675.66;5083935;28;20394;-78
2022/06/29 00:42:48;;;;;;;0.00;0.00;;;;;;;19.54;58.03;101670.38;5081151;28;20037;-78
2022/06/29 00:45:14;;;;;;;0.30;0.30;;;;;;;19.53;57.69;101670.44;5091803;28;20115;-78
2022/06/29 00:47:40;;;;;;;0.00;0.00;;;;;;;19.49;57.86;101668.81;5085537;28;20024;-78
2022/06/29 00:50:07;;;;;;;0.00;0.00;;;;;;;19.47;58.15;101663.50;5094495;28;20063;-78
2022/06/29 00:52:36;;;;;;;0.00;0.00;;;;;;;19.44;57.89;101660.97;5093527;28;20070;-77
2022/06/29 00:55:10;;;;;;;0.10;0.10;;;;;;;19.45;58.18;101667.22;5075837;28;20485;-77
2022/06/29 00:57:41;;;;;;;1.55;0.63;;;;;;;19.43;58.41;101658.31;5088603;28;20489;-77
2022/06/29 01:00:08;;;;;;;0.00;0.00;;;;;;;19.38;58.27;101659.41;5082532;28;20056;-77
2022/06/29 01:02:34;;;;;;;0.10;0.10;;;;;;;19.36;58.15;101660.44;5084737;28;20032;-77
2022/06/29 01:05:01;;;;;;;0.00;0.00;;;;;;;19.36;58.24;101655.91;5093074;28;20031;-77
2022/06/29 01:07:30;;;;;;;0.00;0.00;;;;;;;19.36;57.83;101657.75;5090725;28;20389;-77
2022/06/29 01:09:57;;;;;;;0.00;0.00;;;;;;;19.31;57.79;101657.94;5090309;28;20035;-77
2022/06/29 01:12:23;;;;;;;0.00;0.00;;;;;;;19.30;58.07;101647.25;5082798;28;20436;-77
2022/06/29 01:14:51;;;;;;;0.00;0.00;;;;;;;19.27;58.16;101647.41;5089675;28;20042;-77
2022/06/29 01:17:19;;;;;;;0.00;0.00;;;;;;;19.24;57.43;101641.22;5086247;28;20081;-78
2022/06/29 01:19:45;;;;;;;0.00;0.00;;;;;;;19.22;58.25;101644.91;5087618;28;20032;-78
2022/06/29 01:22:21;;;;;;;0.05;0.05;;;;;;;19.28;58.05;101644.66;5075641;28;20075;-78
2022/06/29 01:24:48;;;;;;;0.10;0.10;;;;;;;19.19;58.04;101645.03;5084247;28;20031;-79
2022/06/29 01:27:16;;;;;;;0.00;0.00;;;;;;;19.16;57.65;101645.19;5094431;28;20035;-78
2022/06/29 01:29:43;;;;;;;0.00;0.00;;;;;;;19.14;58.23;101641.69;5080597;28;20368;-78
2022/06/29 01:32:09;;;;;;;0.70;0.70;;;;;;;19.11;58.44;101641.81;5080851;28;20035;-78
2022/06/29 01:34:37;;;;;;;0.00;0.00;;;;;;;19.11;58.15;101639.13;5090531;28;20032;-77
2022/06/29 01:37:04;;;;;;;0.10;0.10;;;;;;;19.08;58.16;101646.38;5077793;28;20379;-77
2022/06/29 01:39:31;;;;;;;0.00;0.00;;;;;;;19.06;58.33;101645.56;5078010;28;20099;-76
2022/06/29 01:41:57;;;;;;;0.00;0.00;;;;;;;19.04;58.41;101649.25;5083911;28;20028;-77
2022/06/29 01:44:24;;;;;;;0.00;0.00;;;;;;;19.00;58.54;101647.66;5078105;28;20028;-77
2022/06/29 01:46:51;;;;;;;0.00;0.00;;;;;;;19.03;58.20;101653.78;5084450;28;20390;-77
2022/06/29 01:49:17;;;;;;;0.00;0.00;;;;;;;19.01;58.54;101644.88;5094169;28;20035;-77
2022/06/29 01:51:43;;;;;;;0.00;0.00;;;;;;;18.97;58.51;101651.34;5086434;28;20039;-77
2022/06/29 01:54:12;;;;;;;0.00;0.00;;;;;;;18.97;58.38;101648.66;5080035;28;20029;-77
2022/06/29 01:56:38;;;;;;;0.00;0.00;;;;;;;18.96;58.38;101644.22;5076265;28;20028;-77
2022/06/29 01:59:04;;;;;;;0.05;0.05;;;;;;;18.92;58.02;101642.63;5083809;28;20044;-77
2022/06/29 02:01:31;;;;;;;0.00;0.00;;;;;;;18.88;58.66;101640.97;5089835;28;20031;-77
2022/06/29 02:03:57;;;;;;;0.00;0.00;;;;;;;18.90;58.67;101644.44;5092579;28;20043;-77
2022/06/29 02:06:24;;;;;;;0.00;0.00;;;;;;;18.89;58.49;101632.84;5083883;28;20028;-78
2022/06/29 02:08:51;;;;;;;0.00;0.00;;;;;;;18.85;58.64;101627.66;5091776;28;20028;-77
2022/06/29 02:11:17;;;;;;;0.10;0.10;;;;;;;18.85;58.52;101630.34;5086133;28;20090;-77
2022/06/29 02:13:43;;;;;;;0.10;0.10;;;;;;;18.85;58.36;101635.72;5081455;28;20105;-77
2022/06/29 02:16:09;;;;;;;0.00;0.00;;;;;;;18.82;58.55;101625.13;5087699;28;20020;-77
2022/06/29 02:18:36;;;;;;;0.00;0.00;;;;;;;18.82;58.83;101630.50;5093110;28;20082;-77
2022/06/29 02:21:02;;;;;;;0.00;0.00;;;;;;;18.79;58.84;101626.13;5092015;28;20124;-77
2022/06/29 02:23:28;;;;;;;0.00;0.00;;;;;;;18.77;58.59;101619.94;5082202;28;20106;-78
2022/06/29 02:25:55;;;;;;;0.25;0.25;;;;;;;18.75;58.69;101621.81;5087838;28;20029;-77
2022/06/29 02:28:21;;;;;;;0.10;0.10;;;;;;;18.72;59.06;101625.50;5087405;28;20162;-77
2022/06/29 02:36:19;;;;;;;0.00;0.00;;;;;;;18.71;59.24;101610.31;5087936;28;20036;-77
2022/06/29 02:38:45;;;;;;;0.00;0.00;;;;;;;18.65;59.27;101613.25;5087605;28;20021;-77
2022/06/29 02:41:11;;;;;;;0.00;0.00;;;;;;;18.67;58.96;101616.75;5079495;28;20064;-77
2022/06/29 02:43:37;;;;;;;0.00;0.00;;;;;;;18.64;59.06;101610.66;5084032;28;20508;-77
2022/06/29 02:46:04;;;;;;;0.00;0.00;;;;;;;18.62;59.61;101602.66;5065142;28;20036;-77
2022/06/29 02:48:32;;;;;;;0.00;0.00;;;;;;;18.60;59.46;101604.53;5089209;28;20031;-77
2022/06/29 02:50:59;;;;;;;0.08;0.08;;;;;;;18.56;59.56;101597.56;5083883;28;20028;-77
2022/06/29 02:53:25;;;;;;;0.00;0.00;;;;;;;18.57;59.54;101600.16;5075997;28;20407;-78
2022/06/29 02:55:52;;;;;;;0.00;0.00;;;;;;;18.54;59.62;101607.47;5087026;28;20359;-78
2022/06/29 02:58:18;;;;;;;0.10;0.10;;;;;;;18.53;59.64;101597.66;5087317;28;20489;-77
2022/06/29 03:00:44;;;;;;;0.00;0.00;;;;;;;18.48;59.78;101605.03;5078443;28;20039;-78
2022/06/29 03:03:10;;;;;;;0.13;0.13;;;;;;;18.49;59.77;101590.69;5073368;28;20025;-78
2022/06/29 03:05:36;;;;;;;0.03;0.03;;;;;;;18.48;60.10;101605.03;5082922;28;20111;-77
2022/06/29 03:08:03;;;;;;;0.68;0.68;;;;;;;18.41;60.06;101589.19;5087153;28;20106;-77
2022/06/29 03:10:29;;;;;;;0.10;0.10;;;;;;;18.45;60.00;101592.63;5085523;28;20039;-78
2022/06/29 03:12:55;;;;;;;0.10;0.10;;;;;;;18.46;59.94;101586.31;5079288;28;20544;-78
2022/06/29 03:15:21;;;;;;;0.08;0.08;;;;;;;18.43;59.76;101587.31;5075416;28;20077;-78
2022/06/29 03:17:47;;;;;;;0.05;0.05;;;;;;;18.40;59.78;101590.13;5089106;28;20073;-78
2022/06/29 03:20:13;;;;;;;0.00;0.00;;;;;;;18.37;60.35;101582.22;5086136;28;20060;-78
2022/06/29 03:22:39;;;;;;;0.00;0.00;;;;;;;18.35;60.37;101584.06;5088628;28;20789;-78
2022/06/29 03:25:06;;;;;;;0.00;0.00;;;;;;;18.32;60.15;101581.53;5080822;28;20048;-78
2022/06/29 03:27:32;;;;;;;0.00;0.00;;;;;;;18.34;59.56;101576.09;5088941;28;20035;-77
2022/06/29 03:29:59;;;;;;;0.00;0.00;;;;;;;18.29;60.09;101573.59;5087970;28;20508;-78
2022/06/29 03:32:25;;;;;;;0.10;0.10;;;;;;;18.28;60.26;101579.91;5073750;28;20043;-77
2022/06/29 03:34:51;;;;;;;0.10;0.10;;;;;;;18.30;59.91;101582.53;5082496;28;20573;-78
2022/06/29 03:37:17;;;;;;;0.00;0.00;;;;;;;18.27;60.12;101575.47;5088179;28;20604;-77
2022/06/29 03:39:44;;;;;;;0.00;0.00;;;;;;;18.27;59.66;101575.47;5065595;28;20051;-77
2022/06/29 03:42:10;;;;;;;0.00;0.00;;;;;;;18.25;60.27;101571.97;5087071;28;20032;-78
2022/06/29 03:44:37;;;;;;;0.00;0.00;;;;;;;18.26;60.53;101576.41;5091185;28;20031;-77
2022/06/29 03:47:03;;;;;;;0.00;0.00;;;;;;;18.26;60.45;101573.72;5089096;28;20032;-77
2022/06/29 03:49:29;;;;;;;0.00;0.00;;;;;;;18.25;60.39;101574.66;5089720;28;20036;-77
2022/06/29 03:51:55;;;;;;;0.10;0.10;;;;;;;18.25;60.41;101578.19;5088061;28;20055;-77
2022/06/29 03:54:21;;;;;;;0.00;0.00;;;;;;;18.24;60.53;101571.13;5079894;28;20037;-77
2022/06/29 03:56:50;;;;;;;0.00;0.00;;;;;;;18.26;60.27;101571.03;5064482;28;20062;-77
2022/06/29 03:59:16;;;;;;;0.00;0.00;;;;;;;18.27;59.79;101568.28;5084923;28;20111;-77
2022/06/29 04:01:43;;;;;;;0.00;0.00;;;;;;;18.28;60.04;101571.88;5091885;28;20044;-77
2022/06/29 04:04:09;;;;;;;0.70;0.35;;;;;;;18.29;59.75;101573.59;5085765;28;20032;-77
2022/06/29 04:06:35;;;;;;;0.00;0.00;;;;;;;18.27;59.62;101570.13;5085958;28;20075;-77
2022/06/29 04:09:01;;;;;;;0.10;0.10;;;;;;;18.27;59.80;101568.28;5091215;28;22193;-77
2022/06/29 04:11:48;;;;;;;0.08;0.08;;;;;;;18.28;60.27;101571.88;5086306;28;20036;-77
2022/06/29 04:14:13;;;;;;;0.00;0.00;;;;;;;18.30;60.49;101569.97;5083243;28;20418;-77
2022/06/29 04:16:39;;;;;;;0.10;0.10;;;;;;;18.35;60.31;101572.47;5079860;28;20029;-77
2022/06/29 04:19:05;;;;;;;0.38;0.38;;;;;;;18.36;60.27;101567.03;5091172;28;20040;-77
2022/06/29 04:21:31;;;;;;;0.35;0.35;;;;;;;18.37;60.19;101571.47;5096645;28;20024;-77
2022/06/29 04:23:57;;;;;;;0.05;0.05;;;;;;;18.43;59.83;101565.00;5087488;28;20020;-77
2022/06/29 04:26:23;;;;;;;0.10;0.10;;;;;;;18.42;59.87;101560.56;5085097;28;20043;-77
2022/06/29 04:28:49;;;;;;;0.00;0.00;;;;;;;18.46;60.07;101569.34;5090975;28;20032;-78
2022/06/29 04:31:15;;;;;;;0.00;0.00;;;;;;;18.48;60.06;101568.34;5084537;28;20074;-78
2022/06/29 04:33:41;;;;;;;0.10;0.10;;;;;;;18.51;60.14;101564.66;5093566;28;20028;-78
2022/06/29 04:36:08;;;;;;;0.00;0.00;;;;;;;18.53;60.01;101557.41;5090226;28;20490;-77
2022/06/29 04:38:34;;;;;;;0.00;0.00;;;;;;;18.55;59.64;101553.72;5087891;28;20038;-78
2022/06/29 04:41:01;;;;;;;0.00;0.00;;;;;;;18.58;59.66;101555.44;5085170;28;20698;-77
2022/06/29 04:43:29;;;;;;;0.08;0.08;;;;;;;18.59;59.92;101543.72;5089925;28;20034;-77
2022/06/29 04:46:27;;;;;;;0.00;0.00;;;;;;;18.64;59.69;101552.50;5076695;28;20400;-77
2022/06/29 04:48:42;;;;;;;0.10;0.10;;;;;;;18.69;59.87;101553.16;5087926;28;20064;-77
2022/06/29 04:51:08;;;;;;;0.00;0.00;;;;;;;18.74;59.54;101548.47;5084167;28;20028;-78
2022/06/29 04:53:34;;;;;;;1.27;1.17;;;;;;;18.80;59.34;101552.69;5091436;28;20038;-78
2022/06/29 04:56:00;;;;;;;0.00;0.00;;;;;;;18.84;59.29;101542.69;5093526;28;20036;-77
2022/06/29 04:58:27;;;;;;;0.10;0.10;;;;;;;18.87;59.04;101539.88;5091328;28;20103;-77
2022/06/29 05:00:53;;;;;;;0.20;0.20;;;;;;;18.90;59.44;101542.41;5089415;28;20032;-78
2022/06/29 05:03:19;;;;;;;0.10;0.10;;;;;;;18.89;59.21;101538.88;5091514;28;20023;-77
2022/06/29 05:05:47;;;;;;;0.08;0.08;;;;;;;18.97;59.13;101533.19;5093387;28;20394;-77
2022/06/29 05:08:14;;;;;;;0.35;0.35;;;;;;;19.02;59.15;101530.31;5088820;28;20593;-77
2022/06/29 05:10:41;;;;;;;0.00;0.00;;;;;;;19.04;58.97;101533.78;5085382;28;20033;-78
2022/06/29 05:13:09;;;;;;;0.00;0.00;;;;;;;19.04;59.29;101531.97;5079020;28;20398;-78
2022/06/29 05:15:35;;;;;;;0.00;0.00;;;;;;;19.10;59.11;101527.25;5089351;28;20028;-78
2022/06/29 05:18:02;;;;;;;0.00;0.00;;;;;;;19.15;59.13;101525.25;5085139;28;20043;-78
2022/06/29 05:20:28;;;;;;;0.08;0.08;;;;;;;19.17;59.23;101518.00;5077818;28;20028;-78
2022/06/29 05:22:54;;;;;;;0.00;0.00;;;;;;;19.22;58.93;101516.81;5078861;28;20043;-78
2022/06/29 05:25:21;;;;;;;0.10;0.10;;;;;;;19.26;58.59;101514.88;5080349;28;20020;-78
2022/06/29 05:27:47;;;;;;;0.00;0.00;;;;;;;19.34;58.55;101519.88;5085263;28;20020;-78
2022/06/29 05:30:14;;;;;;;0.15;0.15;;;;;;;19.39;58.96;101512.50;5086502;28;20041;-78
2022/06/29 05:32:41;;;;;;;0.10;0.10;;;;;;;19.46;58.91;101518.47;5090351;28;20397;-78
2022/06/29 05:35:07;;;;;;;0.00;0.00;;;;;;;19.53;58.60;101506.50;5081582;28;20025;-78
2022/06/29 05:37:33;;;;;;;0.08;0.08;;;;;;;19.60;58.32;101509.75;5084961;28;20492;-78
2022/06/29 05:40:00;;;;;;;0.00;0.00;;;;;;;19.64;58.19;101517.59;5090831;28;20054;-78
2022/06/29 05:42:27;;;;;;;0.10;0.10;;;;;;;19.69;57.98;101510.19;5120066;22;20047;-80
2022/06/29 05:44:53;;;;;;;0.03;0.03;;;;;;;19.74;58.44;101515.34;5100294;28;20024;-80
2022/06/29 05:47:19;;;;;;;0.63;0.63;;;;;;;19.82;57.95;101509.59;5099133;28;20032;-80
2022/06/29 05:49:46;;;;;;;0.38;0.38;;;;;;;19.86;57.99;101511.22;5098843;28;20043;-80
2022/06/29 05:52:12;;;;;;;0.10;0.10;;;;;;;19.91;57.62;101508.31;5097619;28;20043;-80
2022/06/29 05:54:38;;;;;;;0.00;0.00;;;;;;;19.97;57.75;101500.78;5086550;28;20047;-79
2022/06/29 05:57:05;;;;;;;0.20;0.20;;;;;;;20.02;57.97;101490.69;5099055;28;20024;-78
2022/06/29 05:59:32;;;;;;;0.20;0.20;;;;;;;20.04;57.65;101494.19;5096406;28;20032;-79
2022/06/29 06:01:58;;;;;;;0.00;0.00;;;;;;;20.10;57.54;101498.41;5093542;28;20040;-79
2022/06/29 06:04:25;;;;;;;0.00;0.00;;;;;;;20.14;57.54;101493.72;5087368;28;20032;-79
2022/06/29 06:06:52;;;;;;;0.00;0.00;;;;;;;20.21;57.09;101492.44;5086592;28;20085;-79
2022/06/29 06:09:22;;;;;;;0.00;0.00;;;;;;;20.29;57.43;101489.41;5091870;28;20020;-79
2022/06/29 06:11:48;;;;;;;0.10;0.10;;;;;;;20.34;57.06;101490.03;5095949;28;20024;-79
2022/06/29 06:14:14;;;;;;;0.00;0.00;;;;;;;20.41;57.03;101479.81;5098079;28;20028;-78
2022/06/29 06:16:40;;;;;;;0.10;0.10;;;;;;;20.49;56.96;101491.06;5082851;28;20036;-79
2022/06/29 06:19:06;;;;;;;0.30;0.30;;;;;;;20.55;56.86;101493.44;5087900;28;20039;-79
2022/06/29 06:21:32;;;;;;;0.10;0.10;;;;;;;20.59;57.00;101489.63;5092489;28;20033;-80
2022/06/29 06:23:58;;;;;;;0.10;0.10;;;;;;;20.67;56.97;101487.44;5089615;28;20070;-80
2022/06/29 06:26:24;;;;;;;0.00;0.00;;;;;;;20.76;56.55;101495.97;5084752;28;20543;-80
2022/06/29 06:28:52;;;;;;;0.00;0.00;;;;;;;20.81;56.67;101496.59;5083092;28;20030;-80
2022/06/29 06:31:18;;;;;;;0.00;0.00;;;;;;;20.91;56.24;101492.50;5092043;28;20028;-81
2022/06/29 06:33:44;;;;;;;0.00;0.00;;;;;;;20.97;56.21;101492.16;5091243;28;20041;-80
2022/06/29 06:36:10;;;;;;;0.28;0.28;;;;;;;21.00;56.10;101505.47;5084850;28;20028;-79
2022/06/29 06:38:36;;;;;;;0.00;0.00;;;;;;;21.08;56.04;101502.34;5086637;28;20089;-79
2022/06/29 06:41:33;;;;;;;0.00;0.00;;;;;;;21.16;56.14;101499.25;5096829;28;20033;-79
2022/06/29 06:43:50;;;;;;;2.40;0.40;;;;;;;21.24;56.35;101498.84;5094737;28;20036;-79
2022/06/29 06:46:16;;;;;;;0.10;0.10;;;;;;;21.34;55.82;101506.31;5097279;28;20028;-79
2022/06/29 06:48:43;;;;;;;0.00;0.00;;;;;;;21.44;55.77;101497.72;5096391;28;20032;-80
2022/06/29 06:51:11;;;;;;;0.00;0.00;;;;;;;21.52;55.64;101490.09;5096565;28;20016;-80
2022/06/29 06:53:37;;;;;;;0.00;0.00;;;;;;;21.60;55.33;101493.25;5096266;28;20032;-79
2022/06/29 06:56:03;;;;;;;0.00;0.00;;;;;;;21.69;54.91;101488.31;5094111;28;20032;-80
2022/06/29 06:58:29;;;;;;;0.10;0.10;;;;;;;21.81;54.75;101490.31;5094368;28;20634;-79
2022/06/29 07:00:55;;;;;;;0.10;0.10;;;;;;;21.89;54.75;101488.00;5085558;28;20391;-79
2022/06/29 07:03:22;;;;;;;3.03;1.35;;;;;;;21.98;54.53;101492.91;5094509;28;20104;-79
2022/06/29 07:05:48;;;;;;;0.10;0.10;;;;;;;22.04;54.65;101491.66;5097115;28;20016;-80
2022/06/29 07:08:14;;;;;;;0.00;0.00;;;;;;;22.17;54.39;101486.44;5095968;28;20460;-79
2022/06/29 07:10:40;;;;;;;0.00;0.00;;;;;;;22.26;54.23;101488.56;5097288;28;20038;-79
2022/06/29 07:13:06;;;;;;;0.00;0.00;;;;;;;22.40;53.98;101486.91;5087529;28;20051;-79
2022/06/29 07:15:32;;;;;;;0.40;0.40;;;;;;;22.49;53.30;101491.75;5091839;28;20024;-80
2022/06/29 07:17:58;;;;;;;0.30;0.30;;;;;;;22.55;53.41;101480.59;5095578;28;20113;-83
2022/06/29 07:20:28;;;;;;;0.25;0.25;;;;;;;22.66;53.10;101479.09;5097288;28;20028;-81
2022/06/29 07:22:54;;;;;;;0.00;0.00;;;;;;;22.73;52.99;101477.72;5095258;28;20020;-79
2022/06/29 07:25:20;;;;;;;0.10;0.10;;;;;;;22.78;53.26;101481.03;5095336;28;20034;-80
2022/06/29 07:27:46;;;;;;;0.13;0.13;;;;;;;22.92;52.62;101477.47;5088732;28;20411;-81
2022/06/29 07:30:13;;;;;;;0.15;0.15;;;;;;;23.04;52.77;101475.81;5095864;28;20480;-79
2022/06/29 07:32:39;;;;;;;0.05;0.05;;;;;;;23.13;52.77;101486.06;5091601;28;20412;-80
2022/06/29 07:35:05;;;;;;;0.10;0.10;;;;;;;23.23;53.03;101479.13;5094784;28;20412;-79
2022/06/29 07:37:31;;;;;;;0.32;0.32;;;;;;;23.37;52.38;101480.09;5098209;28;20407;-79
2022/06/29 07:39:57;;;;;;;0.00;0.00;;;;;;;23.42;51.91;101469.84;5093459;28;20056;-80
2022/06/29 07:42:23;;;;;;;0.10;0.10;;;;;;;23.51;50.99;101471.09;5089788;28;20036;-78
2022/06/29 07:44:49;;;;;;;0.20;0.20;;;;;;;23.65;51.27;101475.59;5098559;28;20057;-79
2022/06/29 07:47:16;;;;;;;0.00;0.00;;;;;;;23.69;49.11;101487.94;5099378;28;20035;-79
2022/06/29 07:49:42;;;;;;;0.00;0.00;;;;;;;23.81;49.53;101473.59;5100513;28;20103;-79
2022/06/29 07:52:08;;;;;;;0.20;0.20;;;;;;;23.88;50.04;101483.06;5099935;28;20134;-80
2022/06/29 07:54:34;;;;;;;0.20;0.20;;;;;;;24.00;50.24;101483.25;5099157;28;20049;-79
2022/06/29 07:57:00;;;;;;;0.03;0.03;;;;;;;24.09;49.17;101479.06;5098910;28;20035;-79
2022/06/29 07:59:26;;;;;;;0.10;0.10;;;;;;;24.19;49.77;101480.19;5100227;28;20039;-79
2022/06/29 08:01:52;;;;;;;0.00;0.00;;;;;;;24.26;49.19;101486.91;5099159;28;20460;-80
2022/06/29 08:04:18;;;;;;;0.20;0.20;;;;;;;24.31;49.37;101473.94;5093919;28;20100;-79
2022/06/29 08:06:44;;;;;;;0.00;0.00;;;;;;;24.35;48.92;101485.41;5095753;28;20041;-81
2022/06/29 08:09:10;;;;;;;0.00;0.00;;;;;;;24.44;48.64;101479.38;5095159;28;20030;-79
2022/06/29 08:11:36;;;;;;;0.10;0.10;;;;;;;24.47;48.93;101476.44;5085271;28;20074;-80
2022/06/29 08:14:03;;;;;;;0.20;0.20;;;;;;;24.59;49.05;101477.44;5085616;28;20110;-80
2022/06/29 08:16:29;;;;;;;0.05;0.05;;;;;;;24.73;48.87;101479.22;5092171;28;20033;-79
2022/06/29 08:18:55;;;;;;;0.20;0.20;;;;;;;24.82;48.15;101472.28;5099101;28;20268;-79
2022/06/29 08:21:22;;;;;;;0.20;0.20;;;;;;;24.93;48.68;101476.97;5089215;28;20578;-80
2022/06/29 08:23:48;;;;;;;0.00;0.00;;;;;;;24.97;47.42;101473.94;5094788;28;20031;-80
2022/06/29 08:26:14;;;;;;;0.00;0.00;;;;;;;25.07;48.35;101470.53;5090100;28;20024;-80
2022/06/29 08:28:40;;;;;;;0.15;0.15;;;;;;;25.11;48.11;101467.50;5095551;28;20057;-81
2022/06/29 08:31:06;;;;;;;0.00;0.00;;;;;;;25.15;47.86;101469.00;5086427;28;20032;-82
2022/06/29 08:33:32;;;;;;;0.00;0.00;;;;;;;25.26;47.82;101460.13;5092246;28;20032;-80
2022/06/29 08:35:59;;;;;;;0.05;0.05;;;;;;;25.40;47.53;101464.56;5095505;28;20028;-80
2022/06/29 08:38:25;;;;;;;0.10;0.10;;;;;;;25.52;47.39;101463.66;5084868;28;20033;-80
2022/06/29 08:40:51;;;;;;;0.20;0.20;;;;;;;25.56;47.45;101456.16;5059862;28;20067;-79
2022/06/29 08:43:20;;;;;;;0.50;0.50;;;;;;;25.72;47.28;101471.28;5096067;28;20085;-80
2022/06/29 08:45:48;;;;;;;0.30;0.30;;;;;;;25.77;45.66;101461.84;5099029;28;20028;-79
2022/06/29 08:48:16;;;;;;;0.08;0.08;;;;;;;25.79;45.64;101462.56;5099510;28;20491;-79
2022/06/29 08:50:48;;;;;;;0.90;0.32;;;;;;;25.94;45.55;101465.13;5098358;28;20076;-78
2022/06/29 08:53:15;;;;;;;0.10;0.10;;;;;;;26.00;46.27;101461.94;5095003;28;20035;-78
2022/06/29 08:55:44;;;;;;;0.10;0.10;;;;;;;26.10;45.60;101459.44;5093236;28;20028;-79
2022/06/29 08:58:17;;;;;;;0.17;0.17;;;;;;;26.23;46.05;101464.78;5078908;28;20043;-78
2022/06/29 09:00:43;;;;;;;0.00;0.00;;;;;;;26.30;46.69;101449.75;5083311;28;20100;-77
2022/06/29 09:03:10;;;;;;;0.20;0.20;;;;;;;26.35;46.19;101447.53;5087187;28;20035;-78
2022/06/29 09:05:38;;;;;;;0.10;0.10;;;;;;;26.46;47.15;101454.88;5086327;28;20028;-77
2022/06/29 09:08:04;;;;;;;0.00;0.00;;;;;;;26.52;46.06;101448.06;5086243;28;20036;-79
2022/06/29 09:10:31;;;;;;;0.03;0.03;;;;;;;26.61;45.82;101450.94;5088226;28;20024;-79
2022/06/29 09:12:58;;;;;;;0.20;0.20;;;;;;;26.73;45.43;101454.53;5088630;28;20515;-81
2022/06/29 09:15:33;;;;;;;0.90;0.52;;;;;;;26.88;45.00;101454.31;5087150;28;20047;-83
2022/06/29 09:18:02;;;;;;;0.35;0.28;;;;;;;26.91;44.87;101448.66;5084812;28;20039;-79
2022/06/29 09:20:43;;;;;;;0.20;0.20;;;;;;;27.00;44.29;101442.47;5087140;28;20036;-79
2022/06/29 09:23:10;;;;;;;0.70;0.70;;;;;;;27.00;44.25;101447.91;5085159;28;20048;-80
2022/06/29 09:25:41;;;;;;;0.10;0.10;;;;;;;27.16;44.65;101452.13;5085321;28;20411;-79
2022/06/29 09:28:29;;;;;;;0.10;0.10;;;;;;;27.38;42.68;101443.09;5082797;28;20480;-80
2022/06/29 09:30:56;;;;;;;0.00;0.00;;;;;;;27.38;44.48;101446.66;5088164;28;20039;-79
2022/06/29 09:33:24;;;;;;;0.10;0.10;;;;;;;27.43;42.93;101449.03;5091397;28;20035;-79
2022/06/29 09:38:41;;;;;;;0.38;0.38;;;;;;;27.71;40.98;101444.00;5087512;27;1232567;-80
2022/06/29 09:41:12;;;;;;;0.08;0.08;;;;;;;27.86;41.93;101433.69;5088418;28;20059;-78
2022/06/29 09:43:42;;;;;;;0.00;0.00;;;;;;;27.94;42.85;101431.19;5085341;28;20036;-77
2022/06/29 09:46:11;;;;;;;0.20;0.20;;;;;;;28.03;40.14;101435.84;5076715;28;20620;-79
2022/06/29 09:48:39;;;;;;;0.20;0.20;;;;;;;28.19;38.88;101429.13;5084025;28;20525;-81
2022/06/29 09:51:38;;;;;;;0.10;0.10;;;;;;;28.29;37.12;101426.47;5082790;28;20032;-80
2022/06/29 09:53:58;;;;;;;0.08;0.08;;;;;;;28.41;37.52;101431.72;5082825;28;20036;-78
2022/06/29 09:56:27;;;;;;;0.20;0.20;;;;;;;28.54;38.39;101428.78;5084782;28;20028;-79
2022/06/29 09:58:58;;;;;;;0.13;0.13;;;;;;;28.59;38.33;101433.84;5076378;28;20052;-79
2022/06/29 10:04:13;;;;;;;0.05;0.05;;;;;;;28.73;36.88;101427.22;5083201;28;20123;-80
2022/06/29 10:06:40;;;;;;;0.15;0.15;;;;;;;28.91;38.55;101424.69;5079825;28;20836;-80
2022/06/29 10:09:09;;;;;;;0.08;0.08;;;;;;;29.02;36.62;101421.00;5081078;28;20044;-80
2022/06/29 10:14:29;;;;;;;0.20;0.20;;;;;;;29.08;36.45;101419.59;5084050;27;1859070;-80
2022/06/29 10:17:22;;;;;;;0.00;0.00;;;;;;;29.30;35.06;101422.16;5120951;28;20037;-79
2022/06/29 10:20:20;;;;;;;0.00;0.00;;;;;;;29.37;35.55;101414.25;5118209;28;20035;-79
2022/06/29 10:22:47;;;;;;;0.00;0.00;;;;;;;29.33;34.77;101419.13;5106153;28;20031;-81
2022/06/29 10:25:13;;;;;;;0.22;0.15;;;;;;;29.28;35.02;101418.66;5105933;28;20093;-83
2022/06/29 10:28:16;;;;;;;0.10;0.10;;;;;;;29.41;36.83;101414.84;5105536;28;20047;-80
2022/06/29 10:30:44;;;;;;;0.28;0.28;;;;;;;29.39;36.15;101412.25;5103461;28;20063;-85
2022/06/29 10:33:32;;;;;;;0.00;0.00;;;;;;;29.51;32.63;101416.59;5086415;28;20402;-83
2022/06/29 10:36:07;;;;;;;0.00;0.00;;;;;;;29.54;35.32;101410.84;5105995;28;20522;-82
2022/06/29 10:45:01;;;;;;;0.00;0.00;;;;;;;29.80;35.47;101395.78;5147380;27;20035;-84
2022/06/29 10:47:28;;;;;;;0.10;0.10;;;;;;;29.88;36.70;101395.91;5136703;27;20086;-80
2022/06/29 10:53:02;;;;;;;0.00;0.00;;;;;;;29.98;36.31;101394.09;5096749;27;1165975;-80
2022/06/29 10:55:30;;;;;;;0.35;0.35;;;;;;;30.28;33.18;101385.84;5130916;28;20031;-81
2022/06/29 10:57:57;;;;;;;0.05;0.05;;;;;;;30.39;33.20;101385.66;5130641;27;20019;-81
2022/06/29 11:00:26;;;;;;;0.00;0.00;;;;;;;30.47;32.48;101388.53;5122926;27;20156;-80
2022/06/29 11:02:52;;;;;;;0.10;0.10;;;;;;;30.60;33.48;101390.94;5126317;28;20027;-81
2022/06/29 11:05:19;;;;;;;0.10;0.10;;;;;;;30.73;33.57;101385.16;5133696;27;20042;-80
2022/06/29 11:13:25;;;;;;;0.03;0.03;;;;;;;31.06;33.73;101387.47;5113136;28;20050;-81
2022/06/29 11:15:53;;;;;;;0.00;0.00;;;;;;;31.06;31.73;101379.25;5114962;28;20035;-81
2022/06/29 11:18:24;;;;;;;0.10;0.10;;;;;;;31.07;31.79;101381.88;5124697;27;20027;-80
2022/06/29 11:20:51;;;;;;;0.20;0.20;;;;;;;31.13;29.47;101375.78;5125815;28;20028;-78
2022/06/29 11:23:20;;;;;;;0.00;0.00;;;;;;;31.14;30.96;101376.63;5116967;28;20281;-79
2022/06/29 11:25:49;;;;;;;0.15;0.15;;;;;;;31.17;30.90;101376.34;5117740;27;20034;-78
2022/06/29 11:28:20;;;;;;;0.10;0.10;;;;;;;31.27;31.18;101376.28;5133745;27;20475;-78
2022/06/29 11:31:09;;;;;;;0.00;0.00;;;;;;;31.45;30.01;101376.28;5123977;27;20122;-79
2022/06/29 11:33:37;;;;;;;0.00;0.00;;;;;;;31.44;30.24;101371.81;5113755;28;20480;-79
2022/06/29 11:36:06;;;;;;;0.00;0.00;;;;;;;31.64;30.10;101377.19;5123530;28;20042;-78
2022/06/29 11:38:37;;;;;;;0.00;0.00;;;;;;;31.64;28.49;101377.19;5122688;28;20015;-77
2022/06/29 11:41:11;;;;;;;0.00;0.00;;;;;;;31.91;27.68;101368.03;5131370;28;20178;-77
2022/06/29 11:43:38;;;;;;;0.20;0.20;;;;;;;31.97;29.58;101363.78;5150430;22;20120;-80
2022/06/29 11:46:04;;;;;;;0.10;0.10;;;;;;;31.99;28.14;101364.47;5089642;28;20037;-80
2022/06/29 11:48:31;;;;;;;0.00;0.00;;;;;;;32.01;28.47;101362.44;5090371;28;20107;-80
2022/06/29 11:51:01;;;;;;;0.17;0.17;;;;;;;32.12;29.77;101353.97;5089082;28;20028;-80
2022/06/29 11:56:23;;;;;;;0.00;0.00;;;;;;;32.27;31.26;101359.75;5069367;28;20383;-80
2022/06/29 11:58:51;;;;;;;0.10;0.10;;;;;;;32.20;30.55;101356.81;5069634;28;20078;-80